MiSS Mallory — WDB5044 — position and weather

sailwx.info

Track history (hours):
 
Tides and Currents Weather Stations Pressure Air Temp Water Temp Dewpoint Dewpoint Depression Visibility Wind Speed Wind Dir Waves Ship Positions

MiSS Mallory

Owner: POTOMAC RIVERBOAT COMPANY, ALEXANDRIA, VA. More information available from US FCC via Universal Licensing System and Coast Guard Vessel Documentation Center.

Last reported at 2018-Apr-22 00:36 UTC. Time now 2018-Apr-22 05:04 UTC.
Position N 38°48' W 077°02'.

Length 22 m; draft 2 m.

Type: Passenger vessel. MMSI: 366905270.

Date/timePositionNaut miles runAvg speedWind from/ knotsBaromVisibWave heightAir tempDewpointWater temp
2018-Apr-22 00:36N 38°48' W 077°02'0 0.0
2018-Apr-22 00:28N 38°48' W 077°02'0 0.1
2018-Apr-22 00:00N 38°48' W 077°02'0 0.1
2018-Apr-21 23:28N 38°48' W 077°02'4 7.6
2018-Apr-21 23:00N 38°52' W 077°02'3 4.8
2018-Apr-21 22:27N 38°54' W 077°04'3 7.3
2018-Apr-21 22:00N 38°51' W 077°01'3 5.6
2018-Apr-21 21:28N 38°48' W 077°02'3 7.5
2018-Apr-21 21:00N 38°52' W 077°02'3 5.4
2018-Apr-21 20:29N 38°54' W 077°04'3 5.9
2018-Apr-21 20:00N 38°52' W 077°02'3 5.9
2018-Apr-21 19:25N 38°48' W 077°02'2 5.9
2018-Apr-21 19:00N 38°51' W 077°01'4 7.5
2018-Apr-21 18:30N 38°54' W 077°04'2 5.0
2018-Apr-21 18:00N 38°52' W 077°02'4 7.2
2018-Apr-21 17:29N 38°48' W 077°02'3 6.6
2018-Apr-21 17:00N 38°51' W 077°02'3 6.3
2018-Apr-21 16:30N 38°54' W 077°04'4 6.4
2018-Apr-21 15:57N 38°51' W 077°01'3 5.6
2018-Apr-21 15:26N 38°48' W 077°02'0 0.0
2018-Apr-21 15:00N 38°48' W 077°02'  
2018-Apr-18 00:02N 38°48' W 077°02'0 0.0
2018-Apr-17 23:45N 38°48' W 077°02'0 0.0
2018-Apr-17 23:23N 38°48' W 077°02'0 0.1
2018-Apr-17 22:59N 38°48' W 077°02'1 2.2
2018-Apr-17 22:30N 38°47' W 077°02'1 1.2
2018-Apr-17 22:00N 38°47' W 077°02'5 9.0
2018-Apr-17 21:28N 38°52' W 077°02'1 2.4
2018-Apr-17 20:58N 38°53' W 077°03'4 7.9
2018-Apr-17 20:29N 38°49' W 077°02'2 3.6
2018-Apr-17 19:58N 38°47' W 077°01'1 2.0
2018-Apr-17 19:29N 38°48' W 077°02'1 1.3
2018-Apr-17 18:59N 38°48' W 077°02'0 0.0
2018-Apr-17 18:30N 38°48' W 077°02'0 0.0
2018-Apr-17 17:58N 38°48' W 077°02'0 0.0
2018-Apr-17 17:28N 38°48' W 077°02'0 0.0
2018-Apr-17 16:59N 38°48' W 077°02'0 0.0
2018-Apr-17 16:28N 38°48' W 077°02'0 0.0
2018-Apr-17 15:58N 38°48' W 077°02'0 0.0
2018-Apr-17 15:30N 38°48' W 077°02'0 0.0
2018-Apr-17 15:00N 38°48' W 077°02'0 0.0
2018-Apr-17 14:26N 38°48' W 077°02'0 0.1
2018-Apr-17 13:55N 38°48' W 077°02'0 0.0
2018-Apr-17 13:28N 38°48' W 077°02'0 0.1
2018-Apr-17 12:57N 38°48' W 077°02'0 0.0
2018-Apr-15 23:41N 38°48' W 077°02'0 0.0
2018-Apr-15 23:27N 38°48' W 077°02'3 5.6
2018-Apr-15 23:00N 38°51' W 077°01'4 6.8
2018-Apr-15 22:26N 38°54' W 077°04'3 6.0
2018-Apr-15 22:00N 38°52' W 077°02'4 6.8
2018-Apr-15 21:28N 38°48' W 077°02'4 8.2
2018-Apr-15 21:00N 38°52' W 077°02'2 3.9
2018-Apr-15 20:26N 38°54' W 077°04'2 5.2
2018-Apr-15 20:00N 38°52' W 077°02'4 7.4
2018-Apr-15 19:28N 38°48' W 077°02'3 5.4
2018-Apr-15 19:00N 38°51' W 077°01'4 7.6
2018-Apr-15 18:30N 38°54' W 077°04'3 5.0
2018-Apr-15 18:00N 38°52' W 077°02'4 6.5
2018-Apr-15 17:26N 38°48' W 077°02'2 4.9
2018-Apr-15 17:01N 38°50' W 077°02'4 7.1
2018-Apr-15 16:26N 38°54' W 077°04'2 5.5
2018-Apr-15 16:00N 38°52' W 077°02'4 7.5
2018-Apr-15 15:29N 38°48' W 077°02'0 0.1
2018-Apr-15 15:00N 38°48' W 077°02'0 0.0
2018-Apr-15 00:10N 38°48' W 077°02'0 0.0
2018-Apr-15 00:00N 38°48' W 077°02'0 0.1
2018-Apr-14 23:30N 38°48' W 077°02'4 7.9
2018-Apr-14 22:59N 38°52' W 077°02'2 3.4
2018-Apr-14 22:27N 38°54' W 077°04'4 8.9
2018-Apr-14 22:00N 38°50' W 077°02'2 4.1
2018-Apr-14 21:30N 38°48' W 077°02'4 7.5
2018-Apr-14 20:58N 38°52' W 077°02'2 4.4
2018-Apr-14 20:30N 38°54' W 077°04'4 7.4
2018-Apr-14 19:58N 38°50' W 077°01'2 4.5
2018-Apr-14 19:28N 38°48' W 077°02'4 8.7
2018-Apr-14 19:00N 38°52' W 077°02'2 4.0
2018-Apr-14 18:30N 38°54' W 077°04'4 8.2
2018-Apr-14 17:57N 38°50' W 077°02'2 3.2
2018-Apr-14 17:26N 38°48' W 077°02'3 7.2
2018-Apr-14 17:01N 38°51' W 077°02'3 5.7
2018-Apr-14 16:27N 38°54' W 077°04'3 5.8
2018-Apr-14 15:59N 38°52' W 077°02'4 7.0
2018-Apr-14 15:28N 38°48' W 077°02'0 0.0
2018-Apr-14 15:00N 38°48' W 077°02'0 0.0
2018-Apr-14 14:27N 38°48' W 077°02'0 0.0
2018-Apr-14 03:15N 38°48' W 077°02'0 0.0
2018-Apr-14 02:59N 38°48' W 077°02'0 0.0
2018-Apr-14 02:27N 38°48' W 077°02'0 0.1
2018-Apr-14 01:56N 38°48' W 077°02'0 0.1
2018-Apr-14 01:27N 38°48' W 077°02'3 6.3
2018-Apr-14 00:59N 38°51' W 077°01'1 2.0
2018-Apr-14 00:30N 38°52' W 077°01'1 1.4
2018-Apr-14 00:00N 38°51' W 077°02'3 6.3
2018-Apr-13 23:30N 38°48' W 077°02'0 0.1
2018-Apr-13 22:58N 38°48' W 077°02'0 0.0
2018-Apr-13 22:29N 38°48' W 077°02'0 0.1
2018-Apr-13 22:00N 38°48' W 077°02'0 0.0
2018-Apr-13 21:27N 38°48' W 077°02'0 0.0
2018-Apr-13 20:57N 38°48' W 077°02'0 0.0
2018-Apr-13 20:30N 38°48' W 077°02'2 3.3
2018-Apr-13 20:00N 38°47' W 077°01'2 3.6
2018-Apr-13 19:30N 38°49' W 077°02'4 7.1
2018-Apr-13 18:58N 38°52' W 077°02'3 6.6
2018-Apr-13 18:28N 38°49' W 077°02'1 1.6
2018-Apr-13 17:59N 38°48' W 077°02'0 0.0
2018-Apr-13 17:26N 38°48' W 077°02'0 0.0
2018-Apr-13 00:38N 38°48' W 077°02'0 0.0
2018-Apr-13 00:29N 38°48' W 077°02'3 5.7
2018-Apr-13 00:00N 38°51' W 077°01'4 7.1
2018-Apr-12 23:28N 38°54' W 077°04'3 6.2
2018-Apr-12 22:55N 38°51' W 077°01'3 7.2
2018-Apr-12 22:29N 38°48' W 077°02'0 0.1
2018-Apr-12 21:59N 38°48' W 077°02'0 0.2
2018-Apr-12 21:29N 38°48' W 077°02'0 0.2
2018-Apr-12 20:56N 38°48' W 077°02'0 0.0
2018-Apr-12 20:29N 38°48' W 077°02'1 1.1
2018-Apr-12 20:00N 38°49' W 077°02'4 8.9
2018-Apr-12 19:30N 38°53' W 077°03'1 2.0
2018-Apr-12 19:00N 38°52' W 077°02'2 3.8
2018-Apr-12 18:30N 38°54' W 077°04'3 5.5
2018-Apr-12 18:00N 38°52' W 077°02'3 5.4
2018-Apr-12 17:30N 38°54' W 077°04'3 5.2
2018-Apr-12 16:59N 38°52' W 077°02'3 4.6
2018-Apr-12 16:24N 38°54' W 077°04'0 0.0
2018-Apr-12 15:57N 38°54' W 077°04'0 0.0
2018-Apr-12 15:26N 38°54' W 077°04'2 5.2
2018-Apr-12 15:00N 38°52' W 077°02'2 4.1
2018-Apr-12 14:28N 38°54' W 077°04'2 4.4
2018-Apr-12 14:00N 38°52' W 077°02'4 7.4
2018-Apr-12 13:27N 38°48' W 077°02'0 0.0
2018-Apr-12 12:59N 38°48' W 077°02'  
Track history (hours):
 
Tides and Currents Weather Stations Pressure Air Temp Water Temp Dewpoint Dewpoint Depression Visibility Wind Speed Wind Dir Waves Ship Positions

MiSS Mallory

Owner: POTOMAC RIVERBOAT COMPANY, ALEXANDRIA, VA. More information available from US FCC via Universal Licensing System and Coast Guard Vessel Documentation Center.

Last reported at 2018-Apr-22 00:36 UTC. Time now 2018-Apr-22 05:04 UTC.
Position N 38°48' W 077°02'.

Length 22 m; draft 2 m.

Type: Passenger vessel. MMSI: 366905270.

Date/timePositionNaut miles runAvg speedWind from/ knotsBaromVisibWave heightAir tempDewpointWater temp
2018-Apr-22 00:36N 38°48' W 077°02'0 0.0
2018-Apr-22 00:28N 38°48' W 077°02'0 0.1
2018-Apr-22 00:00N 38°48' W 077°02'0 0.1
2018-Apr-21 23:28N 38°48' W 077°02'4 7.6
2018-Apr-21 23:00N 38°52' W 077°02'3 4.8
2018-Apr-21 22:27N 38°54' W 077°04'3 7.3
2018-Apr-21 22:00N 38°51' W 077°01'3 5.6
2018-Apr-21 21:28N 38°48' W 077°02'3 7.5
2018-Apr-21 21:00N 38°52' W 077°02'3 5.4
2018-Apr-21 20:29N 38°54' W 077°04'3 5.9
2018-Apr-21 20:00N 38°52' W 077°02'3 5.9
2018-Apr-21 19:25N 38°48' W 077°02'2 5.9
2018-Apr-21 19:00N 38°51' W 077°01'4 7.5
2018-Apr-21 18:30N 38°54' W 077°04'2 5.0
2018-Apr-21 18:00N 38°52' W 077°02'4 7.2
2018-Apr-21 17:29N 38°48' W 077°02'3 6.6
2018-Apr-21 17:00N 38°51' W 077°02'3 6.3
2018-Apr-21 16:30N 38°54' W 077°04'4 6.4
2018-Apr-21 15:57N 38°51' W 077°01'3 5.6
2018-Apr-21 15:26N 38°48' W 077°02'0 0.0
2018-Apr-21 15:00N 38°48' W 077°02'  
2018-Apr-18 00:02N 38°48' W 077°02'0 0.0
2018-Apr-17 23:45N 38°48' W 077°02'0 0.0
2018-Apr-17 23:23N 38°48' W 077°02'0 0.1
2018-Apr-17 22:59N 38°48' W 077°02'1 2.2
2018-Apr-17 22:30N 38°47' W 077°02'1 1.2
2018-Apr-17 22:00N 38°47' W 077°02'5 9.0
2018-Apr-17 21:28N 38°52' W 077°02'1 2.4
2018-Apr-17 20:58N 38°53' W 077°03'4 7.9
2018-Apr-17 20:29N 38°49' W 077°02'2 3.6
2018-Apr-17 19:58N 38°47' W 077°01'1 2.0
2018-Apr-17 19:29N 38°48' W 077°02'1 1.3
2018-Apr-17 18:59N 38°48' W 077°02'0 0.0
2018-Apr-17 18:30N 38°48' W 077°02'0 0.0
2018-Apr-17 17:58N 38°48' W 077°02'0 0.0
2018-Apr-17 17:28N 38°48' W 077°02'0 0.0
2018-Apr-17 16:59N 38°48' W 077°02'0 0.0
2018-Apr-17 16:28N 38°48' W 077°02'0 0.0
2018-Apr-17 15:58N 38°48' W 077°02'0 0.0
2018-Apr-17 15:30N 38°48' W 077°02'0 0.0
2018-Apr-17 15:00N 38°48' W 077°02'0 0.0
2018-Apr-17 14:26N 38°48' W 077°02'0 0.1
2018-Apr-17 13:55N 38°48' W 077°02'0 0.0
2018-Apr-17 13:28N 38°48' W 077°02'0 0.1
2018-Apr-17 12:57N 38°48' W 077°02'0 0.0
2018-Apr-15 23:41N 38°48' W 077°02'0 0.0
2018-Apr-15 23:27N 38°48' W 077°02'3 5.6
2018-Apr-15 23:00N 38°51' W 077°01'4 6.8
2018-Apr-15 22:26N 38°54' W 077°04'3 6.0
2018-Apr-15 22:00N 38°52' W 077°02'4 6.8
2018-Apr-15 21:28N 38°48' W 077°02'4 8.2
2018-Apr-15 21:00N 38°52' W 077°02'2 3.9
2018-Apr-15 20:26N 38°54' W 077°04'2 5.2
2018-Apr-15 20:00N 38°52' W 077°02'4 7.4
2018-Apr-15 19:28N 38°48' W 077°02'3 5.4
2018-Apr-15 19:00N 38°51' W 077°01'4 7.6
2018-Apr-15 18:30N 38°54' W 077°04'3 5.0
2018-Apr-15 18:00N 38°52' W 077°02'4 6.5
2018-Apr-15 17:26N 38°48' W 077°02'2 4.9
2018-Apr-15 17:01N 38°50' W 077°02'4 7.1
2018-Apr-15 16:26N 38°54' W 077°04'2 5.5
2018-Apr-15 16:00N 38°52' W 077°02'4 7.5
2018-Apr-15 15:29N 38°48' W 077°02'0 0.1
2018-Apr-15 15:00N 38°48' W 077°02'0 0.0
2018-Apr-15 00:10N 38°48' W 077°02'0 0.0
2018-Apr-15 00:00N 38°48' W 077°02'0 0.1
2018-Apr-14 23:30N 38°48' W 077°02'4 7.9
2018-Apr-14 22:59N 38°52' W 077°02'2 3.4
2018-Apr-14 22:27N 38°54' W 077°04'4 8.9
2018-Apr-14 22:00N 38°50' W 077°02'2 4.1
2018-Apr-14 21:30N 38°48' W 077°02'4 7.5
2018-Apr-14 20:58N 38°52' W 077°02'2 4.4
2018-Apr-14 20:30N 38°54' W 077°04'4 7.4
2018-Apr-14 19:58N 38°50' W 077°01'2 4.5
2018-Apr-14 19:28N 38°48' W 077°02'4 8.7
2018-Apr-14 19:00N 38°52' W 077°02'2 4.0
2018-Apr-14 18:30N 38°54' W 077°04'4 8.2
2018-Apr-14 17:57N 38°50' W 077°02'2 3.2
2018-Apr-14 17:26N 38°48' W 077°02'3 7.2
2018-Apr-14 17:01N 38°51' W 077°02'3 5.7
2018-Apr-14 16:27N 38°54' W 077°04'3 5.8
2018-Apr-14 15:59N 38°52' W 077°02'4 7.0
2018-Apr-14 15:28N 38°48' W 077°02'0 0.0
2018-Apr-14 15:00N 38°48' W 077°02'0 0.0
2018-Apr-14 14:27N 38°48' W 077°02'0 0.0
2018-Apr-14 03:15N 38°48' W 077°02'0 0.0
2018-Apr-14 02:59N 38°48' W 077°02'0 0.0
2018-Apr-14 02:27N 38°48' W 077°02'0 0.1
2018-Apr-14 01:56N 38°48' W 077°02'0 0.1
2018-Apr-14 01:27N 38°48' W 077°02'3 6.3
2018-Apr-14 00:59N 38°51' W 077°01'1 2.0
2018-Apr-14 00:30N 38°52' W 077°01'1 1.4
2018-Apr-14 00:00N 38°51' W 077°02'3 6.3
2018-Apr-13 23:30N 38°48' W 077°02'0 0.1
2018-Apr-13 22:58N 38°48' W 077°02'0 0.0
2018-Apr-13 22:29N 38°48' W 077°02'0 0.1
2018-Apr-13 22:00N 38°48' W 077°02'0 0.0
2018-Apr-13 21:27N 38°48' W 077°02'0 0.0
2018-Apr-13 20:57N 38°48' W 077°02'0 0.0
2018-Apr-13 20:30N 38°48' W 077°02'2 3.3
2018-Apr-13 20:00N 38°47' W 077°01'2 3.6
2018-Apr-13 19:30N 38°49' W 077°02'4 7.1
2018-Apr-13 18:58N 38°52' W 077°02'3 6.6
2018-Apr-13 18:28N 38°49' W 077°02'1 1.6
2018-Apr-13 17:59N 38°48' W 077°02'0 0.0
2018-Apr-13 17:26N 38°48' W 077°02'0 0.0
2018-Apr-13 00:38N 38°48' W 077°02'0 0.0
2018-Apr-13 00:29N 38°48' W 077°02'3 5.7
2018-Apr-13 00:00N 38°51' W 077°01'4 7.1
2018-Apr-12 23:28N 38°54' W 077°04'3 6.2
2018-Apr-12 22:55N 38°51' W 077°01'3 7.2
2018-Apr-12 22:29N 38°48' W 077°02'0 0.1
2018-Apr-12 21:59N 38°48' W 077°02'0 0.2
2018-Apr-12 21:29N 38°48' W 077°02'0 0.2
2018-Apr-12 20:56N 38°48' W 077°02'0 0.0
2018-Apr-12 20:29N 38°48' W 077°02'1 1.1
2018-Apr-12 20:00N 38°49' W 077°02'4 8.9
2018-Apr-12 19:30N 38°53' W 077°03'1 2.0
2018-Apr-12 19:00N 38°52' W 077°02'2 3.8
2018-Apr-12 18:30N 38°54' W 077°04'3 5.5
2018-Apr-12 18:00N 38°52' W 077°02'3 5.4
2018-Apr-12 17:30N 38°54' W 077°04'3 5.2
2018-Apr-12 16:59N 38°52' W 077°02'3 4.6
2018-Apr-12 16:24N 38°54' W 077°04'0 0.0
2018-Apr-12 15:57N 38°54' W 077°04'0 0.0
2018-Apr-12 15:26N 38°54' W 077°04'2 5.2
2018-Apr-12 15:00N 38°52' W 077°02'2 4.1
2018-Apr-12 14:28N 38°54' W 077°04'2 4.4
2018-Apr-12 14:00N 38°52' W 077°02'4 7.4
2018-Apr-12 13:27N 38°48' W 077°02'0 0.0
2018-Apr-12 12:59N 38°48' W 077°02'  

Dump ship's entire track history